Time;durP1;ratioP1;P1;durP2;ratioP2;P2;SDS_P1;SDS_P2;PMS_P1;PMS_P2;Temp;Humidity;BMP_temperature;BMP_pressure;BME280_temperature;BME280_humidity;BME280_pressure;Samples;Min_cycle;Max_cycle;Signal;HPM_P1;HPM_P2
2021/12/13 00:00:37;;;;;;;2.17;1.97;;;;;;;4.40;74.88;100153.09;6203038;23;20431;-81
2021/12/13 00:04:19;;;;;;;1.60;1.50;;;;;;;4.54;74.42;100148.94;6191909;23;20198;-82
2021/12/13 00:07:49;;;;;;;1.53;1.43;;;;;;;4.57;74.89;100161.06;6255961;22;20187;-81
2021/12/13 00:11:09;;;;;;;1.77;1.40;;;;;;;4.56;74.58;100164.69;6297019;22;20204;-82
2021/12/13 00:14:51;;;;;;;1.60;1.50;;;;;;;4.49;74.06;100135.34;6301550;22;20171;-81
2021/12/13 00:17:26;;;;;;;1.60;1.30;;;;;;;4.80;73.24;100164.66;6290595;22;20212;-81
2021/12/13 00:20:44;;;;;;;1.70;1.40;;;;;;;4.86;73.30;100159.50;6289846;22;20208;-82
2021/12/13 00:23:45;;;;;;;2.03;1.57;;;;;;;4.70;73.30;100162.19;6256410;22;20208;-81
2021/12/13 00:26:27;;;;;;;2.07;1.40;;;;;;;4.57;73.54;100147.78;6276144;22;20175;-82
2021/12/13 00:28:55;;;;;;;1.40;1.30;;;;;;;4.62;73.69;100153.44;6294434;22;20160;-82
2021/12/13 00:31:33;;;;;;;2.27;1.50;;;;;;;4.65;72.79;100145.13;6284607;22;20195;-81
2021/12/13 00:39:16;;;;;;;1.57;1.30;;;;;;;4.66;73.34;100166.19;6261058;22;20200;-81
2021/12/13 00:42:34;;;;;;;1.50;1.40;;;;;;;4.63;72.91;100160.38;6290072;22;20207;-81
2021/12/13 00:45:56;;;;;;;2.10;1.90;;;;;;;4.62;72.83;100167.50;6304576;22;20149;-81
2021/12/13 00:49:29;;;;;;;1.70;1.43;;;;;;;4.64;73.03;100176.13;6304702;22;20196;-81
2021/12/13 00:52:46;;;;;;;2.93;1.30;;;;;;;4.64;73.16;100178.78;6304128;22;20168;-81
2021/12/13 00:57:03;;;;;;;1.97;1.50;;;;;;;4.66;72.69;100168.00;6299759;22;20243;-82
2021/12/13 01:00:40;;;;;;;2.10;1.60;;;;;;;4.74;72.11;100175.94;6296717;22;20179;-79
2021/12/13 01:07:41;;;;;;;1.40;1.30;;;;;;;4.81;71.34;100174.25;6154332;22;20220;-80
2021/12/13 01:11:13;;;;;;;3.40;2.73;;;;;;;4.77;71.21;100179.09;6251435;22;20189;-82
2021/12/13 01:18:16;;;;;;;7.90;7.10;;;;;;;4.29;70.48;100172.00;6247771;22;20188;-81
2021/12/13 01:22:16;;;;;;;7.90;7.10;;;;;;;4.02;71.09;100168.84;6302173;22;20200;-80
2021/12/13 01:28:52;;;;;;;8.20;7.17;;;;;;;3.59;71.78;100132.84;6264993;22;20231;-81
2021/12/13 01:32:16;;;;;;;8.20;7.30;;;;;;;3.49;73.32;100152.38;6235636;22;20265;-82
2021/12/13 01:35:24;;;;;;;8.03;7.10;;;;;;;3.42;73.58;100150.50;6210309;22;20208;-81
2021/12/13 01:38:41;;;;;;;7.20;6.33;;;;;;;3.41;73.51;100159.44;6240720;22;20180;-81
2021/12/13 01:41:49;;;;;;;7.97;6.63;;;;;;;3.28;74.33;100156.41;6278059;22;20286;-81
2021/12/13 01:45:37;;;;;;;7.27;6.40;;;;;;;3.33;74.93;100146.19;6286424;22;20140;-81
2021/12/13 01:48:52;;;;;;;7.73;6.60;;;;;;;3.34;75.23;100151.31;6279316;22;20139;-82
2021/12/13 01:52:18;;;;;;;8.20;6.87;;;;;;;3.37;74.86;100152.81;6249310;22;20190;-82
2021/12/13 01:58:46;;;;;;;1.63;1.50;;;;;;;3.95;77.23;100166.03;6205736;23;20210;-81
2021/12/13 02:01:43;;;;;;;1.50;1.40;;;;;;;4.36;77.57;100169.53;6216055;22;20184;-81
2021/12/13 02:04:33;;;;;;;1.53;1.43;;;;;;;4.77;76.55;100167.63;6184777;22;20210;-82
2021/12/13 02:07:54;;;;;;;2.30;1.47;;;;;;;4.74;75.85;100144.94;6186190;23;20197;-81
2021/12/13 02:11:07;;;;;;;1.70;1.60;;;;;;;4.98;75.97;100167.09;6181153;23;20202;-82
2021/12/13 02:14:27;;;;;;;1.70;1.60;;;;;;;4.99;74.97;100152.84;6203259;23;20217;-81
2021/12/13 02:17:12;;;;;;;1.73;1.63;;;;;;;4.99;75.05;100153.66;6228949;22;20203;-81
2021/12/13 02:20:27;;;;;;;1.77;1.63;;;;;;;5.01;75.22;100148.16;6220444;23;20205;-81
2021/12/13 02:23:33;;;;;;;1.87;1.50;;;;;;;5.10;75.10;100147.97;6207718;23;20182;-82
2021/12/13 02:26:26;;;;;;;1.70;1.60;;;;;;;5.14;74.94;100151.94;6273730;22;20184;-82
2021/12/13 02:30:04;;;;;;;1.90;1.30;;;;;;;5.17;74.71;100126.88;6276856;22;20203;-81
2021/12/13 02:33:38;;;;;;;1.20;1.10;;;;;;;5.22;74.63;100143.13;6303040;22;20157;-81
2021/12/13 02:37:01;;;;;;;1.87;1.30;;;;;;;5.37;73.63;100137.88;6295903;22;20184;-81
2021/12/13 02:39:59;;;;;;;1.10;1.00;;;;;;;5.19;73.69;100122.19;6258723;22;20189;-81
2021/12/13 02:43:13;;;;;;;1.17;1.07;;;;;;;5.45;73.24;100148.50;6277532;22;20206;-81
2021/12/13 02:46:37;;;;;;;0.70;0.70;;;;;;;5.48;73.38;100145.47;6302351;22;20180;-82
2021/12/13 02:49:17;;;;;;;0.70;0.70;;;;;;;5.28;73.58;100143.25;6296242;22;20208;-81
2021/12/13 02:52:16;;;;;;;0.50;0.50;;;;;;;5.62;73.00;100160.69;6272958;22;20212;-81
2021/12/13 02:55:07;;;;;;;0.60;0.53;;;;;;;5.58;72.81;100159.38;6293901;22;20168;-82
2021/12/13 02:57:45;;;;;;;0.57;0.50;;;;;;;5.56;73.08;100156.03;6252777;22;20153;-81
2021/12/13 03:00:46;;;;;;;0.70;0.40;;;;;;;5.51;72.90;100159.22;6230057;22;20220;-81
2021/12/13 03:04:11;;;;;;;0.40;0.40;;;;;;;5.45;72.99;100165.25;6208441;23;20258;-81
2021/12/13 03:07:32;;;;;;;0.60;0.40;;;;;;;5.59;72.56;100164.53;6198735;23;20196;-81
2021/12/13 03:10:28;;;;;;;0.50;0.50;;;;;;;5.49;72.82;100171.06;6211335;23;20209;-82
2021/12/13 03:12:59;;;;;;;0.40;0.33;;;;;;;5.53;73.38;100178.50;6199784;23;20207;-81
2021/12/13 03:16:30;;;;;;;0.60;0.40;;;;;;;5.58;73.46;100164.69;6274766;22;20196;-81
2021/12/13 03:19:08;;;;;;;0.30;0.30;;;;;;;5.50;73.67;100168.22;6283053;22;20203;-82
2021/12/13 03:22:46;;;;;;;0.33;0.20;;;;;;;5.44;74.25;100168.91;6211751;23;20193;-82
2021/12/13 03:25:44;;;;;;;0.33;0.30;;;;;;;5.49;74.28;100157.75;6179650;23;20197;-81
2021/12/13 03:28:45;;;;;;;0.23;0.20;;;;;;;5.40;74.70;100167.59;6206975;23;20213;-81
2021/12/13 03:31:58;;;;;;;0.30;0.30;;;;;;;5.49;74.25;100174.53;6208551;23;20568;-81
2021/12/13 03:35:34;;;;;;;0.30;0.30;;;;;;;5.47;74.39;100168.56;6252307;22;20211;-82
2021/12/13 03:38:41;;;;;;;0.20;0.20;;;;;;;5.48;74.68;100169.38;6269056;22;20208;-83
2021/12/13 03:41:28;;;;;;;0.20;0.20;;;;;;;5.39;75.45;100167.78;6274486;22;20202;-81
2021/12/13 03:47:57;;;;;;;0.23;0.23;;;;;;;5.41;74.75;100166.63;6223260;22;20204;-82
2021/12/13 03:51:16;;;;;;;0.23;0.20;;;;;;;5.42;75.73;100167.41;6300397;22;20207;-81
2021/12/13 03:54:13;;;;;;;0.20;0.20;;;;;;;5.36;75.84;100173.44;6298884;22;20282;-81
2021/12/13 03:57:32;;;;;;;0.20;0.20;;;;;;;5.41;75.97;100168.44;6289223;22;20207;-81
2021/12/13 04:00:24;;;;;;;0.30;0.30;;;;;;;5.29;75.77;100167.97;6274881;22;20196;-81
2021/12/13 04:03:27;;;;;;;0.20;0.20;;;;;;;5.23;75.72;100155.38;6290006;22;20200;-81
2021/12/13 04:06:07;;;;;;;0.20;0.20;;;;;;;5.13;76.58;100150.25;6287286;22;20200;-82
2021/12/13 04:08:58;;;;;;;0.67;0.20;;;;;;;5.18;76.34;100155.91;6268311;22;20203;-80
2021/12/13 04:12:14;;;;;;;0.10;0.10;;;;;;;5.23;76.40;100176.63;6213045;23;20213;-79
2021/12/13 04:15:11;;;;;;;0.87;0.20;;;;;;;5.26;75.85;100157.72;6218560;22;20220;-81
2021/12/13 04:18:27;;;;;;;0.10;0.10;;;;;;;5.26;76.08;100155.88;6298848;22;20204;-81
2021/12/13 04:21:05;;;;;;;0.40;0.20;;;;;;;5.32;76.50;100176.44;6209957;23;20190;-81
2021/12/13 04:23:40;;;;;;;0.20;0.10;;;;;;;5.33;75.85;100171.94;6163524;23;20185;-81
2021/12/13 04:27:04;;;;;;;0.20;0.10;;;;;;;5.30;76.00;100175.78;6210097;23;20210;-82
2021/12/13 04:30:04;;;;;;;0.20;0.20;;;;;;;5.26;75.95;100176.31;6208777;23;20166;-82
2021/12/13 04:32:45;;;;;;;0.20;0.20;;;;;;;5.23;76.49;100164.19;6209934;23;20217;-82
2021/12/13 04:35:50;;;;;;;0.20;0.20;;;;;;;5.12;76.58;100156.59;6207018;23;20161;31
2021/12/13 04:39:00;;;;;;;0.13;0.13;;;;;;;5.20;77.31;100179.63;6148643;23;20206;-81
2021/12/13 04:41:49;;;;;;;0.10;0.10;;;;;;;5.19;76.91;100170.00;6103551;23;20207;-81
2021/12/13 04:44:59;;;;;;;0.10;0.10;;;;;;;5.26;77.00;100185.09;6204597;23;20228;-82
2021/12/13 04:48:33;;;;;;;0.43;0.17;;;;;;;5.04;77.24;100140.66;6260700;22;20183;-82
2021/12/13 04:51:32;;;;;;;0.53;0.20;;;;;;;5.17;77.40;100170.19;6303710;22;20216;-81
2021/12/13 04:54:14;;;;;;;0.40;0.20;;;;;;;5.25;76.78;100171.97;6242976;22;20211;-81
2021/12/13 04:57:04;;;;;;;0.70;0.20;;;;;;;5.32;76.38;100167.63;6197790;23;20266;-81
2021/12/13 04:59:32;;;;;;;0.23;0.20;;;;;;;5.29;76.67;100178.59;6205988;23;20200;-81
2021/12/13 05:02:24;;;;;;;0.20;0.20;;;;;;;5.26;76.09;100185.09;6272445;22;20200;-81
2021/12/13 05:05:03;;;;;;;0.20;0.20;;;;;;;5.28;75.86;100172.47;6299066;22;20235;-82
2021/12/13 05:07:39;;;;;;;0.20;0.20;;;;;;;5.31;76.58;100182.75;6297911;22;20160;-82
2021/12/13 05:10:19;;;;;;;0.30;0.30;;;;;;;5.21;77.06;100183.97;6295513;22;20264;-82
2021/12/13 05:13:40;;;;;;;0.17;0.17;;;;;;;5.22;76.55;100170.53;6274274;22;20212;-81
2021/12/13 05:16:12;;;;;;;0.20;0.10;;;;;;;5.31;76.93;100188.06;6296928;22;20200;-82
2021/12/13 05:18:54;;;;;;;0.20;0.20;;;;;;;5.32;76.05;100186.22;6276425;22;20263;-82
2021/12/13 05:21:54;;;;;;;0.30;0.30;;;;;;;5.35;76.37;100188.56;6296961;22;20263;-82
2021/12/13 05:24:58;;;;;;;0.10;0.10;;;;;;;5.34;76.05;100189.56;6303455;22;20167;-82
2021/12/13 05:27:59;;;;;;;0.20;0.20;;;;;;;5.34;75.97;100192.22;6177886;23;20199;-82
2021/12/13 05:31:40;;;;;;;0.20;0.20;;;;;;;5.44;76.02;100202.63;6157953;23;20193;-82
2021/12/13 05:34:14;;;;;;;0.30;0.30;;;;;;;5.41;75.90;100206.47;6208793;23;20214;-82
2021/12/13 05:37:06;;;;;;;0.30;0.23;;;;;;;5.44;76.07;100219.41;6184356;23;20220;-82
2021/12/13 05:40:09;;;;;;;0.20;0.20;;;;;;;5.45;75.86;100214.94;6189354;23;20204;-81
2021/12/13 05:43:28;;;;;;;0.30;0.20;;;;;;;5.40;76.00;100210.13;6209449;23;20236;-81
2021/12/13 05:46:09;;;;;;;0.50;0.20;;;;;;;5.47;76.19;100218.22;6239730;22;20223;-81
2021/12/13 05:49:15;;;;;;;0.20;0.20;;;;;;;5.40;76.36;100207.47;6272631;22;20203;-81
2021/12/13 05:52:49;;;;;;;0.20;0.20;;;;;;;5.47;76.46;100216.41;6302985;22;20184;-81
2021/12/13 05:55:54;;;;;;;0.20;0.20;;;;;;;5.44;76.71;100214.09;6256676;22;20186;-81
2021/12/13 05:58:34;;;;;;;0.10;0.10;;;;;;;5.47;76.32;100227.03;6182722;23;20209;-81
2021/12/13 06:01:54;;;;;;;0.13;0.13;;;;;;;5.43;76.70;100232.84;6183502;23;20206;-82
2021/12/13 06:06:00;;;;;;;0.20;0.20;;;;;;;5.52;75.80;100231.81;6187938;23;20225;-80
2021/12/13 06:08:37;;;;;;;0.17;0.17;;;;;;;5.54;76.13;100233.31;6210919;23;20253;-81
2021/12/13 06:11:35;;;;;;;0.40;0.20;;;;;;;5.41;76.76;100233.06;6162104;23;20197;-80
2021/12/13 06:14:29;;;;;;;0.33;0.20;;;;;;;5.46;76.71;100230.69;6206426;23;20262;-82
2021/12/13 06:17:27;;;;;;;0.10;0.10;;;;;;;5.51;76.06;100233.66;6209621;23;20244;-81
2021/12/13 06:20:54;;;;;;;0.30;0.17;;;;;;;5.50;76.65;100240.00;6216846;23;20209;-80
2021/12/13 06:23:50;;;;;;;0.20;0.20;;;;;;;5.37;78.60;100238.84;6123317;23;20211;-84
2021/12/13 06:26:28;;;;;;;0.20;0.20;;;;;;;5.35;77.76;100227.59;6170764;23;20178;-81
2021/12/13 06:29:25;;;;;;;0.10;0.10;;;;;;;5.39;78.76;100244.84;6162285;23;20224;-81
2021/12/13 06:32:51;;;;;;;0.30;0.20;;;;;;;5.39;79.24;100240.34;6208718;23;20174;-83
2021/12/13 06:35:31;;;;;;;0.20;0.20;;;;;;;5.33;78.59;100241.84;6217354;22;20526;-82
2021/12/13 06:38:18;;;;;;;0.20;0.20;;;;;;;5.33;79.08;100252.50;6293402;22;20206;-82
2021/12/13 06:40:48;;;;;;;0.77;0.27;;;;;;;5.27;78.10;100253.16;6267968;22;20223;-82
2021/12/13 06:43:47;;;;;;;0.17;0.17;;;;;;;5.18;78.67;100240.91;6267996;22;20208;-82
2021/12/13 06:47:23;;;;;;;0.30;0.30;;;;;;;5.32;78.08;100260.63;6278517;22;20199;-83
2021/12/13 06:50:33;;;;;;;0.20;0.20;;;;;;;5.38;77.80;100259.13;6292506;22;20186;-83
2021/12/13 06:53:29;;;;;;;0.20;0.20;;;;;;;5.39;77.30;100266.09;6293267;22;20192;-83
2021/12/13 06:56:37;;;;;;;0.27;0.20;;;;;;;5.37;77.73;100260.94;6222244;23;20202;-82
2021/12/13 06:59:29;;;;;;;0.67;0.33;;;;;;;5.52;76.71;100269.88;6181340;23;20206;-83
2021/12/13 07:02:33;;;;;;;0.30;0.30;;;;;;;5.40;77.52;100260.63;6233988;22;20231;-83
2021/12/13 07:05:48;;;;;;;0.20;0.20;;;;;;;5.46;76.75;100281.16;6266000;22;20227;-82
2021/12/13 07:08:26;;;;;;;0.10;0.10;;;;;;;5.43;77.25;100268.25;6216244;22;20214;-83
2021/12/13 07:10:53;;;;;;;0.20;0.20;;;;;;;5.51;77.28;100270.84;6235084;22;20200;-83
2021/12/13 07:13:32;;;;;;;0.40;0.20;;;;;;;5.48;77.06;100273.03;6259700;22;20223;-83
2021/12/13 07:16:12;;;;;;;0.20;0.20;;;;;;;5.60;77.30;100277.00;6285964;22;20212;-83
2021/12/13 07:19:00;;;;;;;0.57;0.20;;;;;;;5.59;76.87;100276.16;6296250;22;20195;-83
2021/12/13 07:22:34;;;;;;;0.77;0.30;;;;;;;5.64;76.88;100284.47;6293851;22;20184;-82
2021/12/13 07:25:43;;;;;;;0.20;0.20;;;;;;;5.65;76.73;100285.25;6254406;22;20176;-83
2021/12/13 07:28:33;;;;;;;0.40;0.33;;;;;;;5.75;77.08;100283.22;6255014;22;20199;-83
2021/12/13 07:31:15;;;;;;;0.30;0.30;;;;;;;5.80;76.56;100285.38;6298722;22;20184;-84
2021/12/13 07:34:47;;;;;;;0.40;0.23;;;;;;;5.83;76.83;100293.03;6291794;22;20198;-83
2021/12/13 07:37:57;;;;;;;0.37;0.30;;;;;;;5.80;76.70;100291.53;6300853;22;20191;-82
2021/12/13 07:41:12;;;;;;;0.50;0.50;;;;;;;5.85;76.94;100297.16;6301055;22;20206;-83
2021/12/13 07:44:04;;;;;;;0.40;0.40;;;;;;;5.78;76.58;100297.00;6300866;22;20260;-83
2021/12/13 07:47:05;;;;;;;0.40;0.40;;;;;;;5.78;76.43;100289.03;6304412;22;20216;-84
2021/12/13 07:50:01;;;;;;;0.43;0.40;;;;;;;5.74;76.62;100295.69;6300937;22;20179;-82
2021/12/13 07:52:48;;;;;;;0.83;0.60;;;;;;;5.81;76.22;100305.66;6301381;22;20153;-82
2021/12/13 07:55:46;;;;;;;0.50;0.50;;;;;;;5.85;77.32;100306.97;6256353;22;20194;-82
2021/12/13 07:59:02;;;;;;;0.50;0.50;;;;;;;5.88;76.86;100323.44;6298215;22;20203;-83
2021/12/13 08:02:33;;;;;;;0.67;0.60;;;;;;;5.93;77.50;100320.25;6282410;22;20188;-83
2021/12/13 08:05:40;;;;;;;0.77;0.60;;;;;;;5.98;77.18;100317.91;6292722;22;20203;-82
2021/12/13 08:08:32;;;;;;;0.50;0.50;;;;;;;6.03;76.59;100311.06;6157310;23;20491;-82
2021/12/13 08:11:06;;;;;;;0.57;0.57;;;;;;;6.05;75.78;100306.41;6146133;23;20177;-82
2021/12/13 08:13:55;;;;;;;0.60;0.57;;;;;;;6.17;75.78;100320.97;6171933;23;20215;-82
2021/12/13 08:17:10;;;;;;;0.60;0.60;;;;;;;6.09;76.13;100322.84;6172198;23;20202;-83
2021/12/13 08:20:47;;;;;;;0.50;0.50;;;;;;;6.30;75.61;100327.56;6176332;23;20198;-83
2021/12/13 08:24:16;;;;;;;0.40;0.40;;;;;;;6.41;74.66;100332.47;6182238;23;20214;-82
2021/12/13 08:27:49;;;;;;;0.40;0.40;;;;;;;6.51;74.14;100330.44;6232103;22;20191;-82
2021/12/13 08:31:15;;;;;;;0.43;0.27;;;;;;;6.36;74.21;100330.34;6274004;22;20203;-83
2021/12/13 08:35:02;;;;;;;0.23;0.20;;;;;;;6.53;74.13;100331.09;6283540;22;20200;-83
2021/12/13 08:37:52;;;;;;;1.43;0.40;;;;;;;6.51;73.80;100341.91;6286740;22;20176;-82
2021/12/13 08:40:46;;;;;;;0.50;0.30;;;;;;;6.63;73.57;100329.84;6272064;22;20168;-82
2021/12/13 08:44:28;;;;;;;1.43;0.30;;;;;;;6.50;73.42;100334.91;6298045;22;20184;-83
2021/12/13 08:47:36;;;;;;;0.60;0.30;;;;;;;6.59;73.74;100341.00;6296183;22;20207;-83
2021/12/13 08:53:38;;;;;;;0.30;0.20;;;;;;;6.47;74.12;100348.59;6232924;22;20209;-82
2021/12/13 08:56:46;;;;;;;0.70;0.40;;;;;;;6.44;74.00;100334.81;6214908;23;20141;-82
2021/12/13 08:59:28;;;;;;;0.60;0.30;;;;;;;6.52;74.15;100345.41;6276549;22;20208;-82
2021/12/13 09:02:52;;;;;;;1.43;0.50;;;;;;;6.59;73.45;100351.66;6289639;22;20230;-82
2021/12/13 09:06:26;;;;;;;0.87;0.30;;;;;;;6.61;73.37;100357.66;6250727;22;20514;-83
2021/12/13 09:10:15;;;;;;;0.67;0.30;;;;;;;6.55;73.59;100358.34;6279506;22;20219;-82
2021/12/13 09:17:16;;;;;;;2.00;0.30;;;;;;;6.51;73.98;100360.53;6173364;23;20201;31
2021/12/13 09:20:13;;;;;;;0.77;0.27;;;;;;;6.43;74.14;100346.47;6195974;23;20210;-82
2021/12/13 09:23:51;;;;;;;0.20;0.20;;;;;;;6.58;74.15;100360.66;6231414;22;20204;-82
2021/12/13 09:28:03;;;;;;;4.10;0.47;;;;;;;6.56;74.16;100350.19;6258903;22;20201;-82
2021/12/13 09:31:36;;;;;;;0.47;0.20;;;;;;;6.62;73.68;100346.00;6166801;23;20194;-82
2021/12/13 09:35:03;;;;;;;0.30;0.23;;;;;;;6.60;73.51;100350.66;6252224;22;20204;31
2021/12/13 09:38:31;;;;;;;1.90;0.20;;;;;;;6.57;73.54;100335.06;6198933;23;20291;-82
2021/12/13 09:42:01;;;;;;;2.47;0.30;;;;;;;6.68;73.74;100352.44;6206403;22;20224;-82
2021/12/13 09:45:55;;;;;;;0.60;0.30;;;;;;;6.70;72.98;100337.13;6267103;22;20238;-81
2021/12/13 09:50:02;;;;;;;2.47;0.40;;;;;;;6.44;73.78;100324.97;6196016;22;20210;-83
2021/12/13 09:53:46;;;;;;;0.90;0.30;;;;;;;6.66;74.24;100347.31;6214929;23;20209;-82
2021/12/13 10:01:17;;;;;;;0.30;0.30;;;;;;;6.84;72.66;100347.84;6304021;22;20207;-82
2021/12/13 10:04:38;;;;;;;0.20;0.20;;;;;;;7.00;72.33;100341.53;6247647;22;20213;-82
2021/12/13 10:15:36;;;;;;;2.73;0.40;;;;;;;7.08;71.67;100338.81;6191367;23;20201;-83
2021/12/13 10:19:17;;;;;;;1.03;0.40;;;;;;;7.12;71.28;100347.28;6239925;22;20204;-80
2021/12/13 10:22:40;;;;;;;0.20;0.20;;;;;;;7.19;71.44;100349.03;6183489;23;20202;-81
2021/12/13 10:26:06;;;;;;;0.80;0.27;;;;;;;7.21;71.90;100338.19;6212819;23;20139;-81
2021/12/13 10:29:38;;;;;;;1.80;0.40;;;;;;;7.38;71.42;100337.03;6267104;22;20225;-81
2021/12/13 10:33:27;;;;;;;0.30;0.30;;;;;;;7.36;71.53;100349.72;6300229;22;20195;-82
2021/12/13 10:40:04;;;;;;;1.57;0.50;;;;;;;7.32;71.33;100346.59;6177387;23;20222;-82
2021/12/13 10:44:01;;;;;;;0.30;0.20;;;;;;;7.29;70.67;100341.63;6199366;22;20267;-81
2021/12/13 10:48:05;;;;;;;0.27;0.27;;;;;;;7.22;70.89;100348.69;6303282;22;20179;-82
2021/12/13 10:52:12;;;;;;;0.20;0.20;;;;;;;7.08;71.57;100344.16;6236301;22;20202;-81
2021/12/13 10:55:28;;;;;;;0.30;0.20;;;;;;;7.08;71.92;100342.31;6276834;22;20211;-81
2021/12/13 10:59:18;;;;;;;0.20;0.20;;;;;;;7.05;72.63;100337.31;6180771;23;20329;-81
2021/12/13 11:02:57;;;;;;;0.30;0.30;;;;;;;6.99;71.81;100327.41;6220372;23;20250;-81
2021/12/13 11:09:49;;;;;;;0.30;0.30;;;;;;;7.06;72.78;100341.66;6176197;23;20209;-81
2021/12/13 11:13:23;;;;;;;0.23;0.20;;;;;;;7.23;71.58;100334.34;6234177;23;20205;31
2021/12/13 11:24:20;;;;;;;0.23;0.23;;;;;;;6.97;72.15;100341.91;6194543;22;20236;31
2021/12/13 11:27:23;;;;;;;0.20;0.20;;;;;;;6.83;72.31;100346.16;6195806;23;20206;-85
2021/12/13 11:30:49;;;;;;;0.90;0.20;;;;;;;6.79;73.22;100342.22;6243159;22;20456;-84
2021/12/13 11:39:01;;;;;;;0.20;0.20;;;;;;;6.88;73.65;100341.13;6173614;22;20212;-82
2021/12/13 11:46:29;;;;;;;0.55;0.25;;;;;;;6.87;72.67;100335.97;6034821;22;15076069;-82
2021/12/13 11:50:13;;;;;;;0.23;0.20;;;;;;;6.82;72.43;100338.34;6236771;22;20397;-81
2021/12/13 11:54:23;;;;;;;0.87;0.37;;;;;;;6.69;72.60;100314.16;6260982;22;20201;-82
2021/12/13 12:02:13;;;;;;;0.50;0.30;;;;;;;6.89;73.18;100329.47;6252618;22;20195;-81
2021/12/13 12:06:03;;;;;;;0.27;0.27;;;;;;;6.69;73.48;100330.13;6264700;22;20231;-81
2021/12/13 12:09:28;;;;;;;1.00;0.30;;;;;;;6.72;74.28;100321.81;6243451;22;20188;-82
2021/12/13 12:16:19;;;;;;;0.30;0.30;;;;;;;6.74;73.55;100320.59;6215215;22;20190;-82
2021/12/13 12:19:46;;;;;;;1.03;0.20;;;;;;;6.80;74.13;100311.91;6279550;22;20184;-82
2021/12/13 12:23:33;;;;;;;0.30;0.30;;;;;;;6.65;74.72;100313.69;6263316;22;20215;-81
2021/12/13 12:27:45;;;;;;;0.30;0.30;;;;;;;6.79;74.53;100326.22;6269528;22;20185;-81
2021/12/13 12:30:53;;;;;;;0.43;0.30;;;;;;;6.57;75.45;100330.56;6271152;22;20188;-82
2021/12/13 12:34:30;;;;;;;2.13;1.30;;;;;;;6.72;74.74;100321.81;6274284;22;20207;-81
2021/12/13 12:41:14;;;;;;;0.77;0.30;;;;;;;6.62;75.39;100314.06;6289325;22;20223;-81
2021/12/13 12:44:59;;;;;;;0.30;0.30;;;;;;;6.64;75.58;100320.00;6197925;23;20208;-81
2021/12/13 12:48:59;;;;;;;0.47;0.30;;;;;;;6.63;75.84;100323.69;6226728;23;20205;31
2021/12/13 12:52:20;;;;;;;0.30;0.30;;;;;;;6.60;76.00;100308.06;6162864;23;20189;-81
2021/12/13 12:55:55;;;;;;;0.50;0.30;;;;;;;6.74;75.02;100325.94;6243380;23;20209;-81
2021/12/13 12:59:02;;;;;;;6.83;0.87;;;;;;;6.80;75.13;100322.56;6264511;22;20190;-81
2021/12/13 13:02:18;;;;;;;1.83;0.50;;;;;;;6.78;75.91;100334.38;6242463;23;20197;-81
2021/12/13 13:09:18;;;;;;;2.13;0.50;;;;;;;6.85;75.55;100327.34;6183224;23;20209;-81
2021/12/13 13:12:54;;;;;;;0.57;0.30;;;;;;;6.86;76.09;100326.34;6194484;23;20210;-81
2021/12/13 13:16:07;;;;;;;0.50;0.40;;;;;;;6.71;75.59;100297.00;6213125;23;20185;-81
2021/12/13 13:19:08;;;;;;;3.10;0.70;;;;;;;6.98;75.63;100332.91;6234968;23;20206;-81
2021/12/13 13:29:55;;;;;;;1.23;0.80;;;;;;;7.06;74.92;100332.84;6185861;23;20209;-81
2021/12/13 13:33:17;;;;;;;0.60;0.40;;;;;;;6.94;75.52;100339.59;6233797;22;20195;-81
2021/12/13 13:36:29;;;;;;;2.03;0.40;;;;;;;6.98;75.34;100341.72;6275760;22;20227;-81
2021/12/13 13:40:18;;;;;;;1.10;0.50;;;;;;;6.99;75.54;100338.06;6263964;22;20255;-80
2021/12/13 13:43:28;;;;;;;1.00;0.50;;;;;;;7.04;75.29;100327.69;6269045;22;20188;-81
2021/12/13 13:46:43;;;;;;;1.40;0.60;;;;;;;6.97;76.57;100345.41;6297639;22;20196;-81
2021/12/13 13:49:52;;;;;;;0.60;0.60;;;;;;;6.90;76.47;100344.47;6273415;22;20254;-81
2021/12/13 13:53:24;;;;;;;1.67;1.03;;;;;;;6.78;77.78;100342.38;6294035;22;20228;-80
2021/12/13 13:56:40;;;;;;;0.50;0.50;;;;;;;6.55;77.43;100334.38;6257260;22;20192;-81
2021/12/13 14:00:22;;;;;;;1.03;0.50;;;;;;;6.58;77.99;100366.81;6165489;22;20204;-81
2021/12/13 14:03:40;;;;;;;0.40;0.40;;;;;;;6.56;78.11;100357.34;6294554;22;20215;-81
2021/12/13 14:07:00;;;;;;;0.43;0.43;;;;;;;6.56;77.92;100354.69;6288340;22;20271;-81
2021/12/13 14:10:27;;;;;;;0.60;0.40;;;;;;;6.46;78.05;100338.94;6193521;22;20178;-81
2021/12/13 14:13:55;;;;;;;0.40;0.40;;;;;;;6.41;78.84;100357.25;6301826;22;20201;-81
2021/12/13 14:17:08;;;;;;;0.50;0.50;;;;;;;6.31;78.67;100348.66;6268491;22;20209;-81
2021/12/13 14:20:10;;;;;;;0.83;0.50;;;;;;;6.31;79.07;100361.13;6250805;23;20185;-80
2021/12/13 14:23:30;;;;;;;1.43;0.60;;;;;;;6.38;79.54;100372.75;6279450;22;20235;-81
2021/12/13 14:27:35;;;;;;;0.70;0.70;;;;;;;6.39;80.38;100377.88;6298299;22;20216;-80
2021/12/13 14:31:12;;;;;;;0.80;0.80;;;;;;;6.30;79.63;100362.16;6275199;22;20203;-81
2021/12/13 14:34:30;;;;;;;1.17;0.73;;;;;;;6.44;79.71;100383.53;6222020;22;20266;-80
2021/12/13 14:37:43;;;;;;;1.77;0.80;;;;;;;6.42;80.34;100388.22;6292667;22;20220;-81
2021/12/13 14:41:11;;;;;;;2.00;0.73;;;;;;;6.32;80.25;100384.94;6281901;22;20247;-81
2021/12/13 14:44:35;;;;;;;0.70;0.70;;;;;;;6.28;80.30;100385.44;6294485;22;20219;-81
2021/12/13 14:51:38;;;;;;;1.30;1.00;;;;;;;6.07;80.82;100384.19;6231921;22;20208;-81
2021/12/13 14:54:56;;;;;;;1.57;1.17;;;;;;;6.21;80.54;100401.28;6258290;23;20264;-82
2021/12/13 14:58:20;;;;;;;1.63;1.10;;;;;;;6.19;80.42;100396.16;6280367;22;20183;-81
2021/12/13 15:01:59;;;;;;;1.07;1.00;;;;;;;6.25;80.57;100412.41;6297610;22;20182;-81
2021/12/13 15:05:37;;;;;;;2.30;1.10;;;;;;;6.30;80.12;100420.72;6300009;22;20195;-81
2021/12/13 15:09:05;;;;;;;1.17;0.70;;;;;;;6.31;80.12;100412.53;6296604;22;20212;-82
2021/12/13 15:12:32;;;;;;;1.27;1.00;;;;;;;6.28;79.80;100422.72;6213388;23;20185;-82
2021/12/13 15:16:13;;;;;;;1.10;1.00;;;;;;;6.33;79.65;100418.53;6279249;22;20222;-80
2021/12/13 15:19:29;;;;;;;1.50;1.30;;;;;;;6.18;80.35;100401.63;6293127;22;20196;-80
2021/12/13 15:22:56;;;;;;;3.00;1.10;;;;;;;6.33;79.66;100426.53;6194259;23;20724;-81
2021/12/13 15:26:06;;;;;;;1.23;1.03;;;;;;;6.29;79.94;100417.22;6202345;22;20231;-81
2021/12/13 15:29:27;;;;;;;1.03;0.93;;;;;;;6.42;79.62;100420.16;6229782;23;20244;-81
2021/12/13 15:32:15;;;;;;;0.97;0.93;;;;;;;6.40;78.77;100416.81;6196674;23;20196;-81
2021/12/13 15:35:23;;;;;;;0.80;0.80;;;;;;;6.45;78.51;100422.47;6214778;23;20204;-81
2021/12/13 15:38:37;;;;;;;1.07;0.80;;;;;;;6.48;78.90;100427.47;6182078;23;20202;-81
2021/12/13 15:42:19;;;;;;;2.93;1.20;;;;;;;6.42;78.93;100428.13;6216777;23;20201;-81
2021/12/13 15:45:27;;;;;;;1.20;1.10;;;;;;;6.48;78.39;100414.16;6231652;23;20216;-81
2021/12/13 15:52:17;;;;;;;1.40;1.07;;;;;;;6.52;78.18;100420.78;6212554;23;20209;-81
2021/12/13 15:55:08;;;;;;;1.20;1.10;;;;;;;6.44;78.88;100412.00;6212421;23;20162;-81
2021/12/13 15:59:09;;;;;;;1.40;1.23;;;;;;;6.44;79.26;100434.09;6185105;23;20229;-80
2021/12/13 16:02:40;;;;;;;1.20;1.10;;;;;;;6.37;78.69;100409.19;6229419;22;20204;-82
2021/12/13 16:06:26;;;;;;;1.10;1.10;;;;;;;6.45;78.65;100413.63;6209384;22;20206;-82
2021/12/13 16:09:48;;;;;;;1.30;1.20;;;;;;;6.38;78.69;100408.19;6267747;22;20204;-83
2021/12/13 16:14:06;;;;;;;1.07;1.07;;;;;;;6.42;78.67;100425.47;6218162;22;20211;-82
2021/12/13 16:16:58;;;;;;;1.30;1.20;;;;;;;6.46;78.90;100418.81;6258598;22;20184;-83
2021/12/13 16:20:21;;;;;;;1.73;1.40;;;;;;;6.57;78.54;100420.25;6272504;22;20224;-79
2021/12/13 16:24:11;;;;;;;1.40;1.20;;;;;;;6.52;77.92;100430.59;6242921;22;20185;-82
2021/12/13 16:27:37;;;;;;;1.20;1.10;;;;;;;6.62;78.26;100426.69;6240618;22;20185;-82
2021/12/13 16:30:35;;;;;;;1.20;1.10;;;;;;;6.47;78.19;100415.13;6218818;23;20213;-82
2021/12/13 16:34:15;;;;;;;1.30;1.20;;;;;;;6.64;78.60;100424.69;6243606;22;20203;31
2021/12/13 16:37:05;;;;;;;1.20;1.10;;;;;;;6.60;78.71;100439.38;6219415;23;20220;-82
2021/12/13 16:40:19;;;;;;;1.50;1.40;;;;;;;6.58;78.24;100435.19;6220292;23;20148;-83
2021/12/13 16:43:39;;;;;;;1.43;1.33;;;;;;;6.54;78.12;100432.06;6223005;23;20201;-82
2021/12/13 16:46:25;;;;;;;1.30;1.20;;;;;;;6.42;77.91;100419.31;6156433;23;20213;-82
2021/12/13 16:49:35;;;;;;;1.40;1.30;;;;;;;6.57;78.84;100439.72;6227710;23;20273;-81